Terminal Aerodrome Forecast
Issued by NWS

Home | Current Version | Previous Version | Text Only | Print | Product List | Glossary Off
Versions: 1 2 3 4 5 6 7 8 9 10 11 12 13 14 15 16 17 18 19 20 21 22 23 24

000
FTUS43 KMPX 011100 RRA
TAFRWF
TAF
KRWF 011146Z 0112/0212 14013KT P6SM SCT008 OVC012
     FM011600 17009KT P6SM OVC018
     FM012000 21007KT P6SM VCSH SCT030 BKN060
     FM012300 23005KT P6SM SCT020 BKN090
     FM020600 29006KT P6SM BKN200=

USA.gov is the U.S. government's official web portal to all federal, state and local government web resources and services.